Hlavní strana
METAR-TAF:

METAR-TAF

Letiště :

Lubbock, Texas, Spojené státy americké

zeměpisná šířka: 33-40-03N, zeměpisná délka: 101-49-17W, výška: 1000 m

Aktuální stav počasí

Zpráva byla vytvořena před 56 minutami, v 17:53 UTC
Jižní vítr 12 kt
Teplota 13°C
Vlhkost vzduchu 47%
Tlak 1010 hPa
Viditelnost: 16.1 km
Skoro jasno ve výšce 20000 ft
Polojasno ve výšce 27000 ft

METAR: KLBB 141753Z 18012KT 10SM FEW200 SCT270 13/02 A2982 RMK AO2 SLP079 T01330017 10139 20000 58014 PNO $

Čas: 12:49 (18:49 UTC)

Předpověď počasí

Zpráva byla vytvořena před 1 hodinou a 7 minutami, v 17:42 UTC
Předpověď platná od 14 v 18 UTC do 15 v 18 UTC
Jihojihovýchodní vítr 11 kt
Viditelnost: 10 km
Polojasno ve výšce 25000 ft
Od 14 v 2000 UTC
Jižní vítr 11 kt
Viditelnost: 10 km
Skoro jasno ve výšce 25000 ft
Od 15 v 1000 UTC
Západní vítr 10 kt
Viditelnost: 10 km
Skoro jasno ve výšce 20000 ft
Skoro jasno ve výšce 25000 ft

TAF: KLBB 141742Z 1418/1518 15011KT P6SM SCT250 FM142000 19011KT P6SM FEW250 FM151000 26010KT P6SM FEW200 FEW250

Stav a předpovědi počasí z více než 4 000 letišť (zprávy METAR a TAF).

Červené a žluté tečky na mapě představují dostupné meteorologické stanice.

Když kurzor umístíte na tečku, zobrazí se název stanice.

Pak kliknutím zobrazíte stav a předpověď počasí.

Chcete-li změnit mapu, kliknutím na zelené tlačítko se znaménkem +mapu přiblížíte, kliknutím na zelené tlačítko se znaménkem – mapu oddálíte a kliknutím na zelené šipky přejdete na sousední mapy.


METAR-TAF: